Wakefield, New York
Current Conditions -  °F | °C
As of 10:51 PM on Wednesday 22 Oct 2014 (Local Time) from KLGA Reporting Station
Heavy Rain Heavy Rain  
Wind Chill: 51°   Ceiling: 1600
Heat Index: 51°   Visibility: 4mi
Dew Point: 47°   Wind: 22mph
Humidity: 86%   Direction: 10°N
Pressure: 29.73"   Gusts: 33mph
Location:  40.8905°N, 73.8471°W
Report Text: KLGA 230251Z 01019G29KT 4SM +RA BR BKN016 OVC023 11/08 A2973 RMK AO2 PK WND 02030/0235 SLP069 P0014 60031 T01060083 56013
Loading
Personal Weather Stations






























Interactive Weather Map
Tropical Storm Tracking
New forecast layout! Learn more

10-Day Weather Forecast

Advertisements
Track Severe Weather on mobile